Port Sanilac, Michigan
Current Conditions -  °F | °C
As of 8:31 AM on Sunday 23 Nov 2014 (Local Time) from CYZR Reporting Station
Light Rain Light Rain  
Wind Chill: 37°   Ceiling: 4700
Heat Index: 43°   Visibility: 3mi
Dew Point: 41°   Wind: 9mph
Humidity: 93%   Direction: 180°S
Pressure: 29.93"   Gusts: NA
Location:  43.43°N, 82.54°W
Report Text: CYZR 231331Z AUTO 18008KT 3SM -RA BR FEW013 BKN047 OVC060 06/05 A2993 RMK SLP140
Loading
Personal Weather Stations






























Interactive Weather Map New forecast layout! Learn more

10-Day Weather Forecast

Advertisements
Track Severe Weather on mobile